sensor_id;sensor_type;location;lat;lon;timestamp;temperature;humidity
58849;DHT22;44619;51.022;6.818;2023-02-24T00:01:57;9.40;73.40
58849;DHT22;44619;51.022;6.818;2023-02-24T00:04:29;9.40;73.50
58849;DHT22;44619;51.022;6.818;2023-02-24T00:06:55;9.30;73.60
58849;DHT22;44619;51.022;6.818;2023-02-24T00:09:21;9.30;73.60
58849;DHT22;44619;51.022;6.818;2023-02-24T00:11:54;9.40;73.60
58849;DHT22;44619;51.022;6.818;2023-02-24T00:14:21;9.40;73.60
58849;DHT22;44619;51.022;6.818;2023-02-24T00:16:47;9.30;73.80
58849;DHT22;44619;51.022;6.818;2023-02-24T00:19:15;9.30;73.80
58849;DHT22;44619;51.022;6.818;2023-02-24T00:21:42;9.30;73.60
58849;DHT22;44619;51.022;6.818;2023-02-24T00:24:08;9.30;73.60
58849;DHT22;44619;51.022;6.818;2023-02-24T00:26:33;9.30;73.60
58849;DHT22;44619;51.022;6.818;2023-02-24T00:29:03;9.20;73.70
58849;DHT22;44619;51.022;6.818;2023-02-24T00:31:29;9.20;73.80
58849;DHT22;44619;51.022;6.818;2023-02-24T00:33:55;9.20;73.50
58849;DHT22;44619;51.022;6.818;2023-02-24T00:36:21;9.20;73.80
58849;DHT22;44619;51.022;6.818;2023-02-24T00:38:54;9.10;73.70
58849;DHT22;44619;51.022;6.818;2023-02-24T00:41:26;9.20;73.70
58849;DHT22;44619;51.022;6.818;2023-02-24T00:43:57;9.20;73.60
58849;DHT22;44619;51.022;6.818;2023-02-24T00:46:28;9.10;73.70
58849;DHT22;44619;51.022;6.818;2023-02-24T00:48:55;9.00;73.80
58849;DHT22;44619;51.022;6.818;2023-02-24T00:51:22;9.00;73.80
58849;DHT22;44619;51.022;6.818;2023-02-24T00:53:48;9.00;73.80
58849;DHT22;44619;51.022;6.818;2023-02-24T00:56:14;9.00;73.80
58849;DHT22;44619;51.022;6.818;2023-02-24T00:58:42;9.00;73.70
58849;DHT22;44619;51.022;6.818;2023-02-24T01:01:16;9.00;73.80
58849;DHT22;44619;51.022;6.818;2023-02-24T01:03:43;8.90;73.80
58849;DHT22;44619;51.022;6.818;2023-02-24T01:06:09;8.90;74.00
58849;DHT22;44619;51.022;6.818;2023-02-24T01:08:37;8.90;73.90
58849;DHT22;44619;51.022;6.818;2023-02-24T01:11:07;8.90;74.00
58849;DHT22;44619;51.022;6.818;2023-02-24T01:13:51;8.90;74.00
58849;DHT22;44619;51.022;6.818;2023-02-24T01:16:17;8.80;73.90
58849;DHT22;44619;51.022;6.818;2023-02-24T01:18:45;8.80;74.10
58849;DHT22;44619;51.022;6.818;2023-02-24T01:21:17;8.80;74.00
58849;DHT22;44619;51.022;6.818;2023-02-24T01:23:47;8.80;74.20
58849;DHT22;44619;51.022;6.818;2023-02-24T01:26:13;8.70;74.30
58849;DHT22;44619;51.022;6.818;2023-02-24T01:28:38;8.80;74.30
58849;DHT22;44619;51.022;6.818;2023-02-24T01:31:04;8.80;74.20
58849;DHT22;44619;51.022;6.818;2023-02-24T01:33:31;8.80;74.20
58849;DHT22;44619;51.022;6.818;2023-02-24T01:36:14;8.70;74.00
58849;DHT22;44619;51.022;6.818;2023-02-24T01:38:40;8.70;74.80
58849;DHT22;44619;51.022;6.818;2023-02-24T01:41:10;8.60;74.10
58849;DHT22;44619;51.022;6.818;2023-02-24T01:46:26;8.60;74.20
58849;DHT22;44619;51.022;6.818;2023-02-24T01:48:53;8.60;74.20
58849;DHT22;44619;51.022;6.818;2023-02-24T01:51:19;8.50;74.10
58849;DHT22;44619;51.022;6.818;2023-02-24T01:53:45;8.60;74.20
58849;DHT22;44619;51.022;6.818;2023-02-24T01:56:11;8.50;74.20
58849;DHT22;44619;51.022;6.818;2023-02-24T01:58:38;8.50;74.40
58849;DHT22;44619;51.022;6.818;2023-02-24T02:01:03;8.40;74.40
58849;DHT22;44619;51.022;6.818;2023-02-24T02:03:35;8.40;74.70
58849;DHT22;44619;51.022;6.818;2023-02-24T02:06:03;8.30;74.80
58849;DHT22;44619;51.022;6.818;2023-02-24T02:08:29;8.40;74.60
58849;DHT22;44619;51.022;6.818;2023-02-24T02:11:03;8.30;74.60
58849;DHT22;44619;51.022;6.818;2023-02-24T02:13:29;8.40;74.50
58849;DHT22;44619;51.022;6.818;2023-02-24T02:18:40;8.40;74.30
58849;DHT22;44619;51.022;6.818;2023-02-24T02:21:15;8.40;74.30
58849;DHT22;44619;51.022;6.818;2023-02-24T02:29:08;8.10;74.70
58849;DHT22;44619;51.022;6.818;2023-02-24T02:37:14;8.00;75.10
58849;DHT22;44619;51.022;6.818;2023-02-24T02:39:48;8.00;75.50
58849;DHT22;44619;51.022;6.818;2023-02-24T02:42:28;8.10;74.30
58849;DHT22;44619;51.022;6.818;2023-02-24T02:49:50;8.10;74.00
58849;DHT22;44619;51.022;6.818;2023-02-24T02:52:21;8.00;74.10
58849;DHT22;44619;51.022;6.818;2023-02-24T02:54:48;8.10;73.70
58849;DHT22;44619;51.022;6.818;2023-02-24T02:57:16;8.00;73.70
58849;DHT22;44619;51.022;6.818;2023-02-24T02:59:50;8.10;73.90
58849;DHT22;44619;51.022;6.818;2023-02-24T03:02:22;8.20;73.50
58849;DHT22;44619;51.022;6.818;2023-02-24T03:04:54;8.10;73.50
58849;DHT22;44619;51.022;6.818;2023-02-24T03:07:21;8.10;73.50
58849;DHT22;44619;51.022;6.818;2023-02-24T03:09:49;8.00;73.80
58849;DHT22;44619;51.022;6.818;2023-02-24T03:12:16;8.00;73.80
58849;DHT22;44619;51.022;6.818;2023-02-24T03:14:49;8.00;74.00
58849;DHT22;44619;51.022;6.818;2023-02-24T03:17:18;8.00;73.70
58849;DHT22;44619;51.022;6.818;2023-02-24T03:19:46;8.00;73.70
58849;DHT22;44619;51.022;6.818;2023-02-24T03:22:23;8.00;73.80
58849;DHT22;44619;51.022;6.818;2023-02-24T03:24:51;7.90;73.80
58849;DHT22;44619;51.022;6.818;2023-02-24T03:27:22;8.00;73.70
58849;DHT22;44619;51.022;6.818;2023-02-24T03:29:52;8.00;73.60
58849;DHT22;44619;51.022;6.818;2023-02-24T03:32:21;7.90;73.60
58849;DHT22;44619;51.022;6.818;2023-02-24T03:34:57;7.90;73.80
58849;DHT22;44619;51.022;6.818;2023-02-24T03:37:25;7.90;73.70
58849;DHT22;44619;51.022;6.818;2023-02-24T03:39:53;7.90;73.60
58849;DHT22;44619;51.022;6.818;2023-02-24T03:42:19;7.80;73.70
58849;DHT22;44619;51.022;6.818;2023-02-24T03:44:45;7.70;74.10
58849;DHT22;44619;51.022;6.818;2023-02-24T03:47:11;7.80;73.80
58849;DHT22;44619;51.022;6.818;2023-02-24T03:49:37;7.70;73.70
58849;DHT22;44619;51.022;6.818;2023-02-24T03:52:12;7.70;74.20
58849;DHT22;44619;51.022;6.818;2023-02-24T04:04:44;7.70;73.60
58849;DHT22;44619;51.022;6.818;2023-02-24T04:07:18;7.70;73.40
58849;DHT22;44619;51.022;6.818;2023-02-24T04:10:01;7.70;73.50
58849;DHT22;44619;51.022;6.818;2023-02-24T04:12:30;7.70;73.60
58849;DHT22;44619;51.022;6.818;2023-02-24T04:14:59;7.60;73.80
58849;DHT22;44619;51.022;6.818;2023-02-24T04:17:34;7.70;73.60
58849;DHT22;44619;51.022;6.818;2023-02-24T04:20:03;7.60;73.50
58849;DHT22;44619;51.022;6.818;2023-02-24T04:22:40;7.60;73.60
58849;DHT22;44619;51.022;6.818;2023-02-24T04:25:07;7.50;73.80
58849;DHT22;44619;51.022;6.818;2023-02-24T04:27:40;7.50;73.70
58849;DHT22;44619;51.022;6.818;2023-02-24T04:30:07;7.50;73.90
58849;DHT22;44619;51.022;6.818;2023-02-24T04:32:35;7.40;73.80
58849;DHT22;44619;51.022;6.818;2023-02-24T04:35:05;7.40;73.80
58849;DHT22;44619;51.022;6.818;2023-02-24T04:37:32;7.50;73.60
58849;DHT22;44619;51.022;6.818;2023-02-24T04:40:00;7.50;73.60
58849;DHT22;44619;51.022;6.818;2023-02-24T04:42:26;7.40;73.80
58849;DHT22;44619;51.022;6.818;2023-02-24T04:44:51;7.40;73.90
58849;DHT22;44619;51.022;6.818;2023-02-24T04:47:18;7.40;73.70
58849;DHT22;44619;51.022;6.818;2023-02-24T04:49:44;7.40;73.60
58849;DHT22;44619;51.022;6.818;2023-02-24T04:52:09;7.40;73.80
58849;DHT22;44619;51.022;6.818;2023-02-24T04:54:36;7.30;73.90
58849;DHT22;44619;51.022;6.818;2023-02-24T04:57:02;7.40;73.80
58849;DHT22;44619;51.022;6.818;2023-02-24T04:59:28;7.40;73.60
58849;DHT22;44619;51.022;6.818;2023-02-24T05:01:53;7.30;73.80
58849;DHT22;44619;51.022;6.818;2023-02-24T05:04:19;7.20;73.90
58849;DHT22;44619;51.022;6.818;2023-02-24T05:06:45;7.20;73.60
58849;DHT22;44619;51.022;6.818;2023-02-24T05:09:12;7.10;73.70
58849;DHT22;44619;51.022;6.818;2023-02-24T05:11:47;7.10;73.70
58849;DHT22;44619;51.022;6.818;2023-02-24T05:14:14;6.90;74.10
58849;DHT22;44619;51.022;6.818;2023-02-24T05:16:43;6.90;74.20
58849;DHT22;44619;51.022;6.818;2023-02-24T05:19:13;6.80;74.20
58849;DHT22;44619;51.022;6.818;2023-02-24T05:21:58;6.90;74.10
58849;DHT22;44619;51.022;6.818;2023-02-24T05:24:24;6.80;74.20
58849;DHT22;44619;51.022;6.818;2023-02-24T05:26:51;6.80;74.10
58849;DHT22;44619;51.022;6.818;2023-02-24T05:29:23;6.80;74.10
58849;DHT22;44619;51.022;6.818;2023-02-24T05:31:50;6.80;73.90
58849;DHT22;44619;51.022;6.818;2023-02-24T05:34:18;6.70;74.00
58849;DHT22;44619;51.022;6.818;2023-02-24T05:36:44;6.70;74.40
58849;DHT22;44619;51.022;6.818;2023-02-24T05:39:10;6.60;74.30
58849;DHT22;44619;51.022;6.818;2023-02-24T05:41:40;6.70;74.20
58849;DHT22;44619;51.022;6.818;2023-02-24T05:44:10;6.60;74.40
58849;DHT22;44619;51.022;6.818;2023-02-24T05:46:36;6.60;74.40
58849;DHT22;44619;51.022;6.818;2023-02-24T05:49:10;6.50;74.50
58849;DHT22;44619;51.022;6.818;2023-02-24T05:51:41;6.50;74.40
58849;DHT22;44619;51.022;6.818;2023-02-24T05:54:20;6.50;74.50
58849;DHT22;44619;51.022;6.818;2023-02-24T05:56:47;6.60;74.20
58849;DHT22;44619;51.022;6.818;2023-02-24T05:59:13;6.50;74.10
58849;DHT22;44619;51.022;6.818;2023-02-24T06:01:50;6.60;74.00
58849;DHT22;44619;51.022;6.818;2023-02-24T06:04:17;6.60;73.70
58849;DHT22;44619;51.022;6.818;2023-02-24T06:06:52;6.50;74.00
58849;DHT22;44619;51.022;6.818;2023-02-24T06:09:18;6.40;74.20
58849;DHT22;44619;51.022;6.818;2023-02-24T06:11:47;6.40;74.10
58849;DHT22;44619;51.022;6.818;2023-02-24T06:14:13;6.40;74.10
58849;DHT22;44619;51.022;6.818;2023-02-24T06:16:43;6.30;74.40
58849;DHT22;44619;51.022;6.818;2023-02-24T06:19:09;6.30;74.30
58849;DHT22;44619;51.022;6.818;2023-02-24T06:21:40;6.30;74.30
58849;DHT22;44619;51.022;6.818;2023-02-24T06:24:10;6.20;74.40
58849;DHT22;44619;51.022;6.818;2023-02-24T06:26:42;6.40;74.00
58849;DHT22;44619;51.022;6.818;2023-02-24T06:29:11;6.30;74.20
58849;DHT22;44619;51.022;6.818;2023-02-24T06:31:37;6.30;74.20
58849;DHT22;44619;51.022;6.818;2023-02-24T06:34:02;6.20;74.20
58849;DHT22;44619;51.022;6.818;2023-02-24T06:36:30;6.30;74.00
58849;DHT22;44619;51.022;6.818;2023-02-24T06:38:56;6.30;74.00
58849;DHT22;44619;51.022;6.818;2023-02-24T06:41:21;6.30;74.10
58849;DHT22;44619;51.022;6.818;2023-02-24T06:43:47;6.30;74.10
58849;DHT22;44619;51.022;6.818;2023-02-24T06:46:13;6.30;73.90
58849;DHT22;44619;51.022;6.818;2023-02-24T06:48:39;6.30;73.90
58849;DHT22;44619;51.022;6.818;2023-02-24T06:51:13;6.40;73.80
58849;DHT22;44619;51.022;6.818;2023-02-24T06:53:40;6.30;74.00
58849;DHT22;44619;51.022;6.818;2023-02-24T06:56:08;6.30;74.20
58849;DHT22;44619;51.022;6.818;2023-02-24T06:58:49;6.30;74.20
58849;DHT22;44619;51.022;6.818;2023-02-24T07:01:16;6.30;74.40
58849;DHT22;44619;51.022;6.818;2023-02-24T07:03:42;6.20;74.50
58849;DHT22;44619;51.022;6.818;2023-02-24T07:06:27;6.20;74.70
58849;DHT22;44619;51.022;6.818;2023-02-24T07:08:54;6.20;74.80
58849;DHT22;44619;51.022;6.818;2023-02-24T07:11:27;6.20;74.90
58849;DHT22;44619;51.022;6.818;2023-02-24T07:13:53;6.20;75.00
58849;DHT22;44619;51.022;6.818;2023-02-24T07:16:25;6.30;74.80
58849;DHT22;44619;51.022;6.818;2023-02-24T07:18:59;6.30;74.90
58849;DHT22;44619;51.022;6.818;2023-02-24T07:21:27;6.20;75.00
58849;DHT22;44619;51.022;6.818;2023-02-24T07:23:54;6.30;75.00
58849;DHT22;44619;51.022;6.818;2023-02-24T07:26:24;6.30;75.00
58849;DHT22;44619;51.022;6.818;2023-02-24T07:28:53;6.30;74.90
58849;DHT22;44619;51.022;6.818;2023-02-24T07:31:22;6.40;74.90
58849;DHT22;44619;51.022;6.818;2023-02-24T07:33:51;6.30;74.70
58849;DHT22;44619;51.022;6.818;2023-02-24T07:36:23;6.40;74.60
58849;DHT22;44619;51.022;6.818;2023-02-24T07:38:52;6.30;74.80
58849;DHT22;44619;51.022;6.818;2023-02-24T07:41:19;6.40;75.10
58849;DHT22;44619;51.022;6.818;2023-02-24T17:42:51;10.50;86.10
58849;DHT22;44619;51.022;6.818;2023-02-24T17:45:17;10.10;80.20
58849;DHT22;44619;51.022;6.818;2023-02-24T17:47:43;9.90;80.60
58849;DHT22;44619;51.022;6.818;2023-02-24T17:50:09;9.80;80.20
58849;DHT22;44619;51.022;6.818;2023-02-24T17:52:37;9.70;79.70
58849;DHT22;44619;51.022;6.818;2023-02-24T17:55:02;9.70;79.30
58849;DHT22;44619;51.022;6.818;2023-02-24T17:57:46;9.60;78.60
58849;DHT22;44619;51.022;6.818;2023-02-24T18:00:12;9.60;78.10
58849;DHT22;44619;51.022;6.818;2023-02-24T18:02:45;9.60;77.50
58849;DHT22;44619;51.022;6.818;2023-02-24T18:05:11;9.60;76.80
58849;DHT22;44619;51.022;6.818;2023-02-24T18:07:36;9.60;76.00
58849;DHT22;44619;51.022;6.818;2023-02-24T18:10:02;9.60;75.80
58849;DHT22;44619;51.022;6.818;2023-02-24T18:12:28;9.60;75.40
58849;DHT22;44619;51.022;6.818;2023-02-24T18:14:53;9.40;75.30
58849;DHT22;44619;51.022;6.818;2023-02-24T18:17:19;9.20;75.60
58849;DHT22;44619;51.022;6.818;2023-02-24T18:19:44;9.10;75.40
58849;DHT22;44619;51.022;6.818;2023-02-24T18:22:10;9.10;75.30
58849;DHT22;44619;51.022;6.818;2023-02-24T18:24:36;9.00;75.50
58849;DHT22;44619;51.022;6.818;2023-02-24T18:27:03;8.90;75.70
58849;DHT22;44619;51.022;6.818;2023-02-24T18:29:29;8.80;75.90
58849;DHT22;44619;51.022;6.818;2023-02-24T18:31:55;8.80;75.90
58849;DHT22;44619;51.022;6.818;2023-02-24T18:34:20;8.70;76.10
58849;DHT22;44619;51.022;6.818;2023-02-24T18:36:49;8.60;76.00
58849;DHT22;44619;51.022;6.818;2023-02-24T18:39:14;8.60;76.10
58849;DHT22;44619;51.022;6.818;2023-02-24T18:41:40;8.40;76.30
58849;DHT22;44619;51.022;6.818;2023-02-24T18:44:06;8.40;76.40
58849;DHT22;44619;51.022;6.818;2023-02-24T18:46:31;8.40;76.30
58849;DHT22;44619;51.022;6.818;2023-02-24T18:49:02;8.30;76.30
58849;DHT22;44619;51.022;6.818;2023-02-24T18:51:30;8.30;76.30
58849;DHT22;44619;51.022;6.818;2023-02-24T18:53:57;8.20;76.50
58849;DHT22;44619;51.022;6.818;2023-02-24T18:56:26;8.20;76.50
58849;DHT22;44619;51.022;6.818;2023-02-24T18:58:53;8.10;76.50
58849;DHT22;44619;51.022;6.818;2023-02-24T19:01:20;8.00;76.60
58849;DHT22;44619;51.022;6.818;2023-02-24T19:03:46;8.00;76.80
58849;DHT22;44619;51.022;6.818;2023-02-24T19:06:13;8.00;76.40
58849;DHT22;44619;51.022;6.818;2023-02-24T19:08:41;8.00;76.40
58849;DHT22;44619;51.022;6.818;2023-02-24T19:11:10;7.90;76.60
58849;DHT22;44619;51.022;6.818;2023-02-24T19:13:36;7.90;76.60
58849;DHT22;44619;51.022;6.818;2023-02-24T19:16:01;7.90;76.50
58849;DHT22;44619;51.022;6.818;2023-02-24T19:18:27;7.90;76.20
58849;DHT22;44619;51.022;6.818;2023-02-24T19:20:52;7.90;75.90
58849;DHT22;44619;51.022;6.818;2023-02-24T19:23:18;7.90;75.70
58849;DHT22;44619;51.022;6.818;2023-02-24T19:25:44;7.90;75.40
58849;DHT22;44619;51.022;6.818;2023-02-24T19:28:21;7.90;75.50
58849;DHT22;44619;51.022;6.818;2023-02-24T19:30:47;7.90;75.70
58849;DHT22;44619;51.022;6.818;2023-02-24T19:33:12;7.90;75.50
58849;DHT22;44619;51.022;6.818;2023-02-24T19:35:39;7.70;75.50
58849;DHT22;44619;51.022;6.818;2023-02-24T19:38:05;7.70;75.50
58849;DHT22;44619;51.022;6.818;2023-02-24T19:40:30;7.70;75.50
58849;DHT22;44619;51.022;6.818;2023-02-24T19:42:57;7.70;75.60
58849;DHT22;44619;51.022;6.818;2023-02-24T19:45:23;7.60;75.30
58849;DHT22;44619;51.022;6.818;2023-02-24T19:47:48;7.60;75.30
58849;DHT22;44619;51.022;6.818;2023-02-24T19:50:17;7.60;75.30
58849;DHT22;44619;51.022;6.818;2023-02-24T19:52:45;7.60;75.40
58849;DHT22;44619;51.022;6.818;2023-02-24T19:55:10;7.40;75.50
58849;DHT22;44619;51.022;6.818;2023-02-24T19:57:36;7.40;75.70
58849;DHT22;44619;51.022;6.818;2023-02-24T20:00:04;7.30;75.70
58849;DHT22;44619;51.022;6.818;2023-02-24T20:02:29;7.30;75.70
58849;DHT22;44619;51.022;6.818;2023-02-24T20:04:57;7.30;75.70
58849;DHT22;44619;51.022;6.818;2023-02-24T20:07:22;7.30;75.60
58849;DHT22;44619;51.022;6.818;2023-02-24T20:09:48;7.20;75.60
58849;DHT22;44619;51.022;6.818;2023-02-24T20:12:14;7.20;76.10
58849;DHT22;44619;51.022;6.818;2023-02-24T20:14:39;7.10;76.10
58849;DHT22;44619;51.022;6.818;2023-02-24T20:17:05;7.10;76.00
58849;DHT22;44619;51.022;6.818;2023-02-24T20:19:30;7.00;76.40
58849;DHT22;44619;51.022;6.818;2023-02-24T20:21:58;7.00;76.30
58849;DHT22;44619;51.022;6.818;2023-02-24T20:24:23;7.00;76.40
58849;DHT22;44619;51.022;6.818;2023-02-24T20:26:49;7.00;76.10
58849;DHT22;44619;51.022;6.818;2023-02-24T20:29:15;7.00;76.30
58849;DHT22;44619;51.022;6.818;2023-02-24T20:31:41;6.90;76.50
58849;DHT22;44619;51.022;6.818;2023-02-24T20:34:07;6.80;76.80
58849;DHT22;44619;51.022;6.818;2023-02-24T20:36:35;6.90;79.60
58849;DHT22;44619;51.022;6.818;2023-02-24T20:39:00;6.90;82.00
58849;DHT22;44619;51.022;6.818;2023-02-24T20:41:26;6.90;83.80
58849;DHT22;44619;51.022;6.818;2023-02-24T20:43:52;6.80;90.20
58849;DHT22;44619;51.022;6.818;2023-02-24T20:48:54;6.70;89.20
58849;DHT22;44619;51.022;6.818;2023-02-24T20:51:20;6.70;91.40
58849;DHT22;44619;51.022;6.818;2023-02-24T20:53:45;6.70;91.30
58849;DHT22;44619;51.022;6.818;2023-02-24T20:56:11;6.70;91.40
58849;DHT22;44619;51.022;6.818;2023-02-24T20:59:43;6.60;91.50
58849;DHT22;44619;51.022;6.818;2023-02-24T21:01:41;6.70;91.80
58849;DHT22;44619;51.022;6.818;2023-02-24T21:04:07;6.60;91.70
58849;DHT22;44619;51.022;6.818;2023-02-24T21:06:34;6.60;92.20
58849;DHT22;44619;51.022;6.818;2023-02-24T21:08:59;6.60;92.60
58849;DHT22;44619;51.022;6.818;2023-02-24T21:13:51;6.30;99.90
58849;DHT22;44619;51.022;6.818;2023-02-24T21:16:17;6.50;94.90
58849;DHT22;44619;51.022;6.818;2023-02-24T21:18:44;6.50;92.90
58849;DHT22;44619;51.022;6.818;2023-02-24T21:21:10;6.40;92.10
58849;DHT22;44619;51.022;6.818;2023-02-24T21:23:36;6.40;91.80
58849;DHT22;44619;51.022;6.818;2023-02-24T21:26:02;6.40;91.60
58849;DHT22;44619;51.022;6.818;2023-02-24T21:28:28;6.50;91.60
58849;DHT22;44619;51.022;6.818;2023-02-24T21:30:53;6.50;91.10
58849;DHT22;44619;51.022;6.818;2023-02-24T21:33:19;6.60;90.80
58849;DHT22;44619;51.022;6.818;2023-02-24T21:35:55;6.50;90.40
58849;DHT22;44619;51.022;6.818;2023-02-24T21:38:20;6.50;90.20
58849;DHT22;44619;51.022;6.818;2023-02-24T21:40:46;6.60;89.90
58849;DHT22;44619;51.022;6.818;2023-02-24T21:43:13;6.50;89.50
58849;DHT22;44619;51.022;6.818;2023-02-24T21:45:39;6.50;89.90
58849;DHT22;44619;51.022;6.818;2023-02-24T21:48:04;6.50;88.60
58849;DHT22;44619;51.022;6.818;2023-02-24T21:50:30;6.40;88.50
58849;DHT22;44619;51.022;6.818;2023-02-24T21:52:57;6.30;87.50
58849;DHT22;44619;51.022;6.818;2023-02-24T21:55:24;6.10;77.70
58849;DHT22;44619;51.022;6.818;2023-02-24T21:57:50;6.20;77.20
58849;DHT22;44619;51.022;6.818;2023-02-24T22:00:16;6.10;77.30
58849;DHT22;44619;51.022;6.818;2023-02-24T22:02:48;6.10;77.20
58849;DHT22;44619;51.022;6.818;2023-02-24T22:05:14;6.10;77.20
58849;DHT22;44619;51.022;6.818;2023-02-24T22:07:43;6.10;77.20
58849;DHT22;44619;51.022;6.818;2023-02-24T22:10:13;6.00;77.00
58849;DHT22;44619;51.022;6.818;2023-02-24T22:12:40;6.10;76.60
58849;DHT22;44619;51.022;6.818;2023-02-24T22:15:06;6.10;76.80
58849;DHT22;44619;51.022;6.818;2023-02-24T22:17:36;6.00;77.30
58849;DHT22;44619;51.022;6.818;2023-02-24T22:20:07;6.00;77.00
58849;DHT22;44619;51.022;6.818;2023-02-24T22:22:35;5.90;77.40
58849;DHT22;44619;51.022;6.818;2023-02-24T22:25:01;5.90;77.20
58849;DHT22;44619;51.022;6.818;2023-02-24T22:27:29;5.90;77.30
58849;DHT22;44619;51.022;6.818;2023-02-24T22:29:54;5.90;77.40
58849;DHT22;44619;51.022;6.818;2023-02-24T22:32:21;5.90;77.10
58849;DHT22;44619;51.022;6.818;2023-02-24T22:34:46;5.90;77.30
58849;DHT22;44619;51.022;6.818;2023-02-24T22:37:12;5.90;77.30
58849;DHT22;44619;51.022;6.818;2023-02-24T22:39:38;5.90;77.30
58849;DHT22;44619;51.022;6.818;2023-02-24T22:42:04;5.80;77.30
58849;DHT22;44619;51.022;6.818;2023-02-24T22:44:29;5.90;78.30
58849;DHT22;44619;51.022;6.818;2023-02-24T22:46:55;5.80;77.60
58849;DHT22;44619;51.022;6.818;2023-02-24T22:49:21;5.80;77.70
58849;DHT22;44619;51.022;6.818;2023-02-24T22:51:47;5.70;78.10
58849;DHT22;44619;51.022;6.818;2023-02-24T22:54:12;5.80;77.80
58849;DHT22;44619;51.022;6.818;2023-02-24T22:56:38;5.70;78.00
58849;DHT22;44619;51.022;6.818;2023-02-24T22:59:03;5.70;78.30
58849;DHT22;44619;51.022;6.818;2023-02-24T23:01:30;5.60;78.60
58849;DHT22;44619;51.022;6.818;2023-02-24T23:03:59;5.70;78.30
58849;DHT22;44619;51.022;6.818;2023-02-24T23:06:25;5.60;78.50
58849;DHT22;44619;51.022;6.818;2023-02-24T23:08:51;5.60;78.40
58849;DHT22;44619;51.022;6.818;2023-02-24T23:11:18;5.70;78.30
58849;DHT22;44619;51.022;6.818;2023-02-24T23:13:45;5.70;78.30
58849;DHT22;44619;51.022;6.818;2023-02-24T23:16:12;5.70;78.30
58849;DHT22;44619;51.022;6.818;2023-02-24T23:18:38;5.70;78.50
58849;DHT22;44619;51.022;6.818;2023-02-24T23:21:05;5.70;78.30
58849;DHT22;44619;51.022;6.818;2023-02-24T23:23:32;5.70;78.20
58849;DHT22;44619;51.022;6.818;2023-02-24T23:25:58;5.60;78.40
58849;DHT22;44619;51.022;6.818;2023-02-24T23:28:24;5.60;78.50
58849;DHT22;44619;51.022;6.818;2023-02-24T23:30:50;5.60;78.50
58849;DHT22;44619;51.022;6.818;2023-02-24T23:33:19;5.60;78.50
58849;DHT22;44619;51.022;6.818;2023-02-24T23:35:45;5.60;78.40
58849;DHT22;44619;51.022;6.818;2023-02-24T23:38:11;5.60;78.30
58849;DHT22;44619;51.022;6.818;2023-02-24T23:40:40;5.60;78.40
58849;DHT22;44619;51.022;6.818;2023-02-24T23:43:07;5.50;78.40
58849;DHT22;44619;51.022;6.818;2023-02-24T23:45:37;5.50;78.60
58849;DHT22;44619;51.022;6.818;2023-02-24T23:48:03;5.60;78.50
58849;DHT22;44619;51.022;6.818;2023-02-24T23:50:29;5.50;78.60
58849;DHT22;44619;51.022;6.818;2023-02-24T23:52:56;5.50;78.50
58849;DHT22;44619;51.022;6.818;2023-02-24T23:55:21;5.60;78.30
58849;DHT22;44619;51.022;6.818;2023-02-24T23:57:47;5.50;78.50
